createdAt,value
2017-09-17T00:00:47.316Z,0
2017-09-17T00:01:47.311Z,0
2017-09-17T00:02:46.658Z,0
2017-09-17T00:03:47.365Z,0
2017-09-17T00:04:47.549Z,0
2017-09-17T00:05:47.549Z,0
2017-09-17T00:06:47.499Z,0
2017-09-17T00:07:47.199Z,0
2017-09-17T00:08:47.179Z,0
2017-09-17T00:09:46.829Z,0
2017-09-17T00:10:46.845Z,0
2017-09-17T00:11:47.147Z,0
2017-09-17T00:12:47.067Z,0
2017-09-17T00:13:47.051Z,0
2017-09-17T00:14:47.028Z,0
2017-09-17T00:15:46.700Z,0
2017-09-17T00:16:46.670Z,0
2017-09-17T00:17:46.658Z,0
2017-09-17T00:18:46.964Z,0
2017-09-17T00:19:46.949Z,0
2017-09-17T00:20:46.917Z,0
2017-09-17T00:21:46.953Z,0
2017-09-17T00:22:47.199Z,0
2017-09-17T00:23:47.169Z,0
2017-09-17T00:24:47.138Z,0
2017-09-17T00:25:46.499Z,0
2017-09-17T00:26:46.790Z,0
2017-09-17T00:27:46.784Z,0
2017-09-17T00:28:46.783Z,0
2017-09-17T00:29:47.078Z,0
2017-09-17T00:30:46.474Z,0
2017-09-17T00:31:46.707Z,0
2017-09-17T00:32:47.187Z,0
2017-09-17T00:33:47.227Z,0
2017-09-17T00:34:46.336Z,0
2017-09-17T00:35:46.617Z,0
2017-09-17T00:36:47.008Z,0
2017-09-17T00:37:46.274Z,0
2017-09-17T00:38:46.568Z,0
2017-09-17T00:39:46.532Z,0
2017-09-17T00:40:46.822Z,0
2017-09-17T00:41:46.194Z,0
2017-09-17T00:42:46.599Z,0
2017-09-17T00:43:46.442Z,0
2017-09-17T00:44:46.831Z,0
2017-09-17T00:45:46.722Z,0
2017-09-17T00:46:46.396Z,0
2017-09-17T00:47:46.409Z,0
2017-09-17T00:48:46.044Z,0
2017-09-17T00:49:46.713Z,0
2017-09-17T00:50:46.636Z,0
2017-09-17T00:51:46.301Z,0
2017-09-17T00:52:46.700Z,0
2017-09-17T00:53:46.249Z,0
2017-09-17T00:54:46.337Z,0
2017-09-17T00:55:45.908Z,0
2017-09-17T00:56:45.654Z,0
2017-09-17T00:57:46.512Z,0
2017-09-17T00:58:46.177Z,0
2017-09-17T00:59:45.823Z,0
2017-09-17T01:00:46.161Z,0
2017-09-17T01:01:45.798Z,0
2017-09-17T01:02:45.858Z,0
2017-09-17T01:03:46.146Z,0
2017-09-17T01:04:45.739Z,0
2017-09-17T01:05:46.096Z,0
2017-09-17T01:06:45.678Z,0
2017-09-17T01:07:45.675Z,0
2017-09-17T01:08:46.274Z,0
2017-09-17T01:09:46.061Z,0
2017-09-17T01:10:46.244Z,0
2017-09-17T01:11:45.614Z,0
2017-09-17T01:12:45.665Z,0
2017-09-17T01:13:45.248Z,0
2017-09-17T01:14:45.961Z,0
2017-09-17T01:15:45.541Z,0
2017-09-17T01:16:45.879Z,0
2017-09-17T01:17:45.801Z,0
2017-09-17T01:18:46.073Z,0
2017-09-17T01:19:45.742Z,0
2017-09-17T01:20:45.730Z,0
2017-09-17T01:21:45.731Z,0
2017-09-17T01:22:45.762Z,0
2017-09-17T01:23:45.772Z,0
2017-09-17T01:24:45.652Z,0
2017-09-17T01:25:45.939Z,0
2017-09-17T01:26:45.599Z,0
2017-09-17T01:27:45.266Z,0
2017-09-17T01:28:45.573Z,0
2017-09-17T01:29:45.660Z,0
2017-09-17T01:30:45.649Z,0
2017-09-17T01:31:45.499Z,0
2017-09-17T01:32:45.522Z,0
2017-09-17T01:33:46.018Z,0
2017-09-17T01:34:45.752Z,0
2017-09-17T01:35:45.108Z,0
2017-09-17T01:36:45.719Z,0
2017-09-17T01:37:45.829Z,0
2017-09-17T01:38:45.747Z,0
2017-09-17T01:39:45.682Z,0
2017-09-17T01:40:45.620Z,0
2017-09-17T01:41:45.645Z,0
2017-09-17T01:42:44.969Z,0
2017-09-17T01:43:45.710Z,0
2017-09-17T01:44:45.560Z,0
2017-09-17T01:45:45.300Z,0
2017-09-17T01:46:45.646Z,0
2017-09-17T01:47:45.292Z,0
2017-09-17T01:48:45.185Z,0
2017-09-17T01:49:45.150Z,0
2017-09-17T01:50:45.140Z,0
2017-09-17T01:51:45.430Z,0
2017-09-17T01:52:45.089Z,0
2017-09-17T01:53:45.071Z,0
2017-09-17T01:54:45.390Z,0
2017-09-17T01:55:45.439Z,0
2017-09-17T01:56:45.039Z,0
2017-09-17T01:57:44.679Z,0
2017-09-17T01:58:44.958Z,0
2017-09-17T01:59:44.954Z,0
2017-09-17T02:00:44.906Z,0
2017-09-17T02:01:45.210Z,0
2017-09-17T02:02:45.190Z,0
2017-09-17T02:03:45.309Z,0
2017-09-17T02:04:45.160Z,0
2017-09-17T02:05:45.148Z,0
2017-09-17T02:06:45.201Z,0
2017-09-17T02:07:44.795Z,0
2017-09-17T02:08:45.072Z,0
2017-09-17T02:09:45.085Z,0
2017-09-17T02:10:44.410Z,0
2017-09-17T02:11:44.711Z,0
2017-09-17T02:12:45.161Z,0
2017-09-17T02:13:44.972Z,0
2017-09-17T02:14:44.319Z,0
2017-09-17T02:15:44.612Z,0
2017-09-17T02:16:44.308Z,0
2017-09-17T02:17:44.599Z,0
2017-09-17T02:18:44.265Z,0
2017-09-17T02:19:44.223Z,0
2017-09-17T02:20:44.288Z,0
2017-09-17T02:21:44.474Z,0
2017-09-17T02:22:44.499Z,0
2017-09-17T02:23:44.138Z,0
2017-09-17T02:24:44.118Z,0
2017-09-17T02:25:43.500Z,0
2017-09-17T02:26:44.682Z,0
2017-09-17T02:27:43.749Z,0
2017-09-17T02:28:44.332Z,0
2017-09-17T02:29:44.343Z,0
2017-09-17T02:30:43.991Z,0
2017-09-17T02:31:44.282Z,0
2017-09-17T02:32:44.585Z,0
2017-09-17T02:33:44.260Z,0
2017-09-17T02:34:44.548Z,0
2017-09-17T02:35:44.548Z,0
2017-09-17T02:36:44.509Z,0
2017-09-17T02:37:43.848Z,0
2017-09-17T02:38:44.709Z,0
2017-09-17T02:39:43.818Z,0
2017-09-17T02:40:44.416Z,0
2017-09-17T02:41:44.393Z,0
2017-09-17T02:42:44.101Z,0
2017-09-17T02:43:44.069Z,0
2017-09-17T02:44:43.732Z,0
2017-09-17T02:45:44.009Z,0
2017-09-17T02:46:43.722Z,0
2017-09-17T02:47:43.659Z,0
2017-09-17T02:48:43.977Z,0
2017-09-17T02:49:43.975Z,0
2017-09-17T02:50:43.279Z,0
2017-09-17T02:51:43.571Z,0
2017-09-17T02:52:44.178Z,0
2017-09-17T02:53:43.859Z,0
2017-09-17T02:54:44.118Z,0
2017-09-17T02:55:43.852Z,0
2017-09-17T02:56:43.169Z,0
2017-09-17T02:57:43.758Z,0
2017-09-17T02:58:43.110Z,0
2017-09-17T02:59:44.022Z,0
2017-09-17T03:00:43.688Z,0
2017-09-17T03:01:43.678Z,0
2017-09-17T03:02:43.979Z,0
2017-09-17T03:03:43.970Z,0
2017-09-17T03:04:43.311Z,0
2017-09-17T03:05:43.602Z,0
2017-09-17T03:06:43.927Z,0
2017-09-17T03:07:43.882Z,0
2017-09-17T03:08:43.509Z,0
2017-09-17T03:09:43.914Z,0
2017-09-17T03:10:43.215Z,0
2017-09-17T03:11:43.189Z,0
2017-09-17T03:12:43.567Z,0
2017-09-17T03:13:43.119Z,0
2017-09-17T03:14:43.731Z,0
2017-09-17T03:15:43.108Z,0
2017-09-17T03:16:43.121Z,0
2017-09-17T03:17:43.042Z,0
2017-09-17T03:18:43.129Z,0
2017-09-17T03:19:43.643Z,0
2017-09-17T03:20:43.598Z,0
2017-09-17T03:21:43.281Z,0
2017-09-17T03:22:43.247Z,0
2017-09-17T03:23:43.230Z,0
2017-09-17T03:24:42.990Z,0
2017-09-17T03:25:42.888Z,0
2017-09-17T03:26:43.479Z,0
2017-09-17T03:27:42.868Z,0
2017-09-17T03:28:43.143Z,0
2017-09-17T03:29:43.125Z,0
2017-09-17T03:30:43.122Z,0
2017-09-17T03:31:43.370Z,0
2017-09-17T03:32:43.057Z,0
2017-09-17T03:33:43.382Z,0
2017-09-17T03:34:43.319Z,0
2017-09-17T03:35:43.295Z,0
2017-09-17T03:36:43.300Z,0
2017-09-17T03:37:42.939Z,0
2017-09-17T03:38:43.252Z,0
2017-09-17T03:39:42.598Z,0
2017-09-17T03:40:43.220Z,0
2017-09-17T03:41:43.181Z,0
2017-09-17T03:42:43.169Z,0
2017-09-17T03:43:43.144Z,0
2017-09-17T03:44:42.837Z,0
2017-09-17T03:45:42.792Z,0
2017-09-17T03:46:42.505Z,0
2017-09-17T03:47:43.061Z,0
2017-09-17T03:48:42.790Z,0
2017-09-17T03:49:42.710Z,0
2017-09-17T03:50:42.999Z,0
2017-09-17T03:51:42.739Z,0
2017-09-17T03:52:42.967Z,0
2017-09-17T03:53:42.667Z,0
2017-09-17T03:54:42.595Z,0
2017-09-17T03:55:42.584Z,0
2017-09-17T03:56:42.252Z,0
2017-09-17T03:57:42.230Z,0
2017-09-17T03:58:41.917Z,0
2017-09-17T03:59:42.491Z,0
2017-09-17T04:00:42.169Z,0
2017-09-17T04:01:42.777Z,0
2017-09-17T04:02:42.749Z,0
2017-09-17T04:03:42.747Z,0
2017-09-17T04:04:42.417Z,0
2017-09-17T04:05:42.731Z,0
2017-09-17T04:06:42.352Z,0
2017-09-17T04:07:42.436Z,0
2017-09-17T04:08:42.002Z,0
2017-09-17T04:09:42.024Z,0
2017-09-17T04:10:42.259Z,0
2017-09-17T04:11:42.250Z,0
2017-09-17T04:12:42.577Z,0
2017-09-17T04:13:41.597Z,0
2017-09-17T04:14:42.519Z,0
2017-09-17T04:15:42.179Z,0
2017-09-17T04:16:42.462Z,0
2017-09-17T04:17:42.130Z,0
2017-09-17T04:18:41.811Z,0
2017-09-17T04:19:42.097Z,0
2017-09-17T04:20:42.090Z,0
2017-09-17T04:21:42.035Z,0
2017-09-17T04:22:42.027Z,0
2017-09-17T04:23:41.716Z,0
2017-09-17T04:24:42.309Z,0
2017-09-17T04:25:42.264Z,0
2017-09-17T04:26:41.948Z,0
2017-09-17T04:27:41.918Z,0
2017-09-17T04:28:41.272Z,0
2017-09-17T04:29:42.179Z,0
2017-09-17T04:30:41.855Z,0
2017-09-17T04:31:42.149Z,0
2017-09-17T04:32:41.509Z,0
2017-09-17T04:33:42.120Z,0
2017-09-17T04:34:41.780Z,0
2017-09-17T04:35:42.088Z,0
2017-09-17T04:36:41.744Z,0
2017-09-17T04:37:41.716Z,0
2017-09-17T04:38:42.259Z,0
2017-09-17T04:39:42.002Z,0
2017-09-17T04:40:41.363Z,0
2017-09-17T04:41:41.641Z,0
2017-09-17T04:42:41.923Z,0
2017-09-17T04:43:40.992Z,0
2017-09-17T04:44:41.892Z,0
2017-09-17T04:45:41.868Z,0
2017-09-17T04:46:40.910Z,0
2017-09-17T04:47:41.280Z,0
2017-09-17T04:48:41.211Z,0
2017-09-17T04:49:41.491Z,0
2017-09-17T04:50:41.461Z,0
2017-09-17T04:51:41.741Z,0
2017-09-17T04:52:41.729Z,0
2017-09-17T04:53:41.072Z,0
2017-09-17T04:54:40.760Z,0
2017-09-17T04:55:41.039Z,0
2017-09-17T04:56:40.700Z,0
2017-09-17T04:57:41.621Z,0
2017-09-17T04:58:41.289Z,0
2017-09-17T04:59:40.957Z,0
2017-09-17T05:00:41.559Z,0
2017-09-17T05:01:41.218Z,0
2017-09-17T05:02:40.890Z,0
2017-09-17T05:03:40.873Z,0
2017-09-17T05:04:41.163Z,0
2017-09-17T05:05:40.826Z,0
2017-09-17T05:06:41.464Z,0
2017-09-17T05:07:40.804Z,0
2017-09-17T05:08:41.387Z,0
2017-09-17T05:09:40.750Z,5
2017-09-17T05:10:40.722Z,5
2017-09-17T05:11:40.705Z,5
2017-09-17T05:12:40.994Z,5
2017-09-17T05:13:41.275Z,5
2017-09-17T05:14:40.951Z,5
2017-09-17T05:15:40.928Z,5
2017-09-17T05:16:40.908Z,5
2017-09-17T05:17:40.908Z,5
2017-09-17T05:18:40.876Z,5
2017-09-17T05:19:40.857Z,10
2017-09-17T05:20:40.529Z,10
2017-09-17T05:21:40.813Z,10
2017-09-17T05:22:40.789Z,10
2017-09-17T05:23:40.758Z,10
2017-09-17T05:24:40.763Z,10
2017-09-17T05:25:40.719Z,10
2017-09-17T05:26:40.759Z,15
2017-09-17T05:27:41.019Z,15
2017-09-17T05:28:40.660Z,15
2017-09-17T05:29:41.007Z,15
2017-09-17T05:30:40.645Z,15
2017-09-17T05:31:40.906Z,15
2017-09-17T05:32:40.664Z,20
2017-09-17T05:33:40.880Z,20
2017-09-17T05:34:40.586Z,20
2017-09-17T05:35:40.874Z,20
2017-09-17T05:36:40.210Z,20
2017-09-17T05:37:40.802Z,20
2017-09-17T05:38:40.469Z,25
2017-09-17T05:39:40.113Z,25
2017-09-17T05:40:40.738Z,25
2017-09-17T05:41:40.758Z,25
2017-09-17T05:42:40.711Z,25
2017-09-17T05:43:40.349Z,25
2017-09-17T05:44:40.675Z,25
2017-09-17T05:45:40.631Z,25
2017-09-17T05:46:40.683Z,30
2017-09-17T05:47:40.280Z,30
2017-09-17T05:48:39.950Z,30
2017-09-17T05:49:40.246Z,35
2017-09-17T05:50:40.210Z,35
2017-09-17T05:51:40.190Z,35
2017-09-17T05:52:40.486Z,35
2017-09-17T05:53:40.466Z,35
2017-09-17T05:54:40.429Z,35
2017-09-17T05:55:40.097Z,40
2017-09-17T05:56:40.401Z,40
2017-09-17T05:57:40.400Z,40
2017-09-17T05:58:40.350Z,40
2017-09-17T05:59:40.331Z,45
2017-09-17T06:00:39.384Z,45
2017-09-17T06:01:40.290Z,45
2017-09-17T06:02:39.661Z,50
2017-09-17T06:03:39.640Z,50
2017-09-17T06:04:40.250Z,45
2017-09-17T06:05:39.897Z,50
2017-09-17T06:06:39.930Z,50
2017-09-17T06:07:39.632Z,55
2017-09-17T06:08:39.839Z,55
2017-09-17T06:09:39.835Z,60
2017-09-17T06:10:39.808Z,65
2017-09-17T06:11:39.780Z,65
2017-09-17T06:12:39.536Z,65
2017-09-17T06:13:40.072Z,70
2017-09-17T06:14:39.709Z,70
2017-09-17T06:15:39.710Z,70
2017-09-17T06:16:39.677Z,70
2017-09-17T06:17:39.670Z,75
2017-09-17T06:18:39.342Z,70
2017-09-17T06:19:39.602Z,75
2017-09-17T06:20:39.960Z,75
2017-09-17T06:21:39.892Z,75
2017-09-17T06:22:39.545Z,80
2017-09-17T06:23:39.206Z,80
2017-09-17T06:24:39.873Z,80
2017-09-17T06:25:38.882Z,85
2017-09-17T06:26:39.161Z,85
2017-09-17T06:27:39.142Z,90
2017-09-17T06:28:39.752Z,90
2017-09-17T06:29:39.421Z,90
2017-09-17T06:30:39.081Z,95
2017-09-17T06:31:39.721Z,95
2017-09-17T06:32:39.461Z,95
2017-09-17T06:33:39.643Z,100
2017-09-17T06:34:39.276Z,100
2017-09-17T06:35:39.001Z,105
2017-09-17T06:36:38.321Z,110
2017-09-17T06:37:39.242Z,105
2017-09-17T06:38:38.890Z,110
2017-09-17T06:39:39.524Z,110
2017-09-17T06:40:39.218Z,115
2017-09-17T06:41:38.528Z,115
2017-09-17T06:42:39.182Z,115
2017-09-17T06:43:39.141Z,115
2017-09-17T06:44:39.096Z,120
2017-09-17T06:45:39.429Z,120
2017-09-17T06:46:38.420Z,125
2017-09-17T06:47:38.731Z,130
2017-09-17T06:48:38.709Z,135
2017-09-17T06:49:39.029Z,140
2017-09-17T06:50:38.979Z,150
2017-09-17T06:51:38.970Z,155
2017-09-17T06:52:38.610Z,155
2017-09-17T06:53:38.359Z,160
2017-09-17T06:54:38.329Z,160
2017-09-17T06:55:38.582Z,160
2017-09-17T06:56:38.553Z,165
2017-09-17T06:57:38.928Z,165
2017-09-17T06:58:39.170Z,165
2017-09-17T06:59:38.530Z,170
2017-09-17T07:00:38.475Z,170
2017-09-17T07:01:38.551Z,170
2017-09-17T07:02:38.787Z,170
2017-09-17T07:03:39.310Z,170
2017-09-17T07:04:38.720Z,170
2017-09-17T07:05:38.441Z,170
2017-09-17T07:06:39.001Z,175
2017-09-17T07:07:38.663Z,175
2017-09-17T07:08:38.949Z,175
2017-09-17T07:09:38.381Z,175
2017-09-17T07:10:38.334Z,180
2017-09-17T07:11:38.941Z,185
2017-09-17T07:12:38.597Z,190
2017-09-17T07:13:38.251Z,195
2017-09-17T07:14:38.586Z,200
2017-09-17T07:15:38.258Z,165
2017-09-17T07:16:38.561Z,175
2017-09-17T07:17:37.871Z,180
2017-09-17T07:18:38.150Z,175
2017-09-17T07:19:37.936Z,175
2017-09-17T07:20:38.443Z,175
2017-09-17T07:21:38.429Z,185
2017-09-17T07:22:38.530Z,190
2017-09-17T07:23:38.390Z,210
2017-09-17T07:24:38.493Z,230
2017-09-17T07:25:38.450Z,235
2017-09-17T07:26:38.343Z,250
2017-09-17T07:27:38.620Z,260
2017-09-17T07:28:38.613Z,285
2017-09-17T07:29:38.589Z,290
2017-09-17T07:30:38.591Z,310
2017-09-17T07:31:38.263Z,320
2017-09-17T07:32:38.263Z,315
2017-09-17T07:33:38.542Z,310
2017-09-17T07:34:38.501Z,320
2017-09-17T07:35:38.493Z,345
2017-09-17T07:36:38.230Z,380
2017-09-17T07:37:38.500Z,405
2017-09-17T07:38:38.471Z,420
2017-09-17T07:39:38.450Z,360
2017-09-17T07:40:38.448Z,355
2017-09-17T07:41:38.429Z,435
2017-09-17T07:42:38.101Z,435
2017-09-17T07:43:38.099Z,365
2017-09-17T07:44:38.061Z,430
2017-09-17T07:45:38.378Z,405
2017-09-17T07:46:38.380Z,425
2017-09-17T07:47:38.372Z,355
2017-09-17T07:48:38.342Z,390
2017-09-17T07:49:38.343Z,375
2017-09-17T07:50:38.050Z,370
2017-09-17T07:51:38.070Z,430
2017-09-17T07:52:38.302Z,380
2017-09-17T07:53:37.973Z,355
2017-09-17T07:54:38.283Z,450
2017-09-17T07:55:38.247Z,690
2017-09-17T07:56:38.003Z,475
2017-09-17T07:57:38.049Z,390
2017-09-17T07:58:38.444Z,360
2017-09-17T07:59:38.170Z,360
2017-09-17T08:00:37.883Z,365
2017-09-17T08:01:38.183Z,405
2017-09-17T08:02:38.168Z,670
2017-09-17T08:03:37.512Z,1440
2017-09-17T08:04:37.499Z,730
2017-09-17T08:05:37.476Z,1190
2017-09-17T08:06:38.103Z,1465
2017-09-17T08:07:37.750Z,1525
2017-09-17T08:08:37.760Z,1510
2017-09-17T08:09:38.069Z,1515
2017-09-17T08:10:38.040Z,1495
2017-09-17T08:11:38.008Z,1525
2017-09-17T08:12:38.010Z,1550
2017-09-17T08:13:37.378Z,1510
2017-09-17T08:14:38.001Z,1500
2017-09-17T08:15:38.090Z,1580
2017-09-17T08:16:37.979Z,1590
2017-09-17T08:17:37.980Z,1505
2017-09-17T08:18:38.112Z,1455
2017-09-17T08:19:37.951Z,1485
2017-09-17T08:20:37.630Z,1490
2017-09-17T08:21:37.914Z,1480
2017-09-17T08:22:38.036Z,1420
2017-09-17T08:23:37.626Z,1380
2017-09-17T08:24:36.987Z,1400
2017-09-17T08:25:36.956Z,1400
2017-09-17T08:26:37.880Z,1420
2017-09-17T08:27:37.572Z,1490
2017-09-17T08:28:37.929Z,1535
2017-09-17T08:29:37.949Z,1450
2017-09-17T08:30:37.890Z,1390
2017-09-17T08:31:37.553Z,1125
2017-09-17T08:32:37.541Z,1455
2017-09-17T08:33:37.910Z,1040
2017-09-17T08:34:37.931Z,1315
2017-09-17T08:35:37.922Z,925
2017-09-17T08:36:36.899Z,460
2017-09-17T08:37:37.830Z,480
2017-09-17T08:38:37.198Z,430
2017-09-17T08:39:37.524Z,435
2017-09-17T08:40:37.499Z,390
2017-09-17T08:41:37.183Z,680
2017-09-17T08:42:37.486Z,1520
2017-09-17T08:43:37.188Z,1375
2017-09-17T08:44:37.161Z,1215
2017-09-17T08:45:37.766Z,1610
2017-09-17T08:46:37.575Z,1535
2017-09-17T08:47:37.125Z,1560
2017-09-17T08:48:37.750Z,1600
2017-09-17T08:49:37.727Z,1565
2017-09-17T08:50:37.115Z,1515
2017-09-17T08:51:37.115Z,1430
2017-09-17T08:52:37.726Z,1505
2017-09-17T08:53:37.420Z,1610
2017-09-17T08:54:37.730Z,1635
2017-09-17T08:55:37.380Z,1600
2017-09-17T08:56:37.065Z,1500
2017-09-17T08:57:37.711Z,1640
2017-09-17T08:58:37.371Z,1580
2017-09-17T08:59:37.369Z,1045
2017-09-17T09:00:37.033Z,660
2017-09-17T09:01:37.769Z,1405
2017-09-17T09:02:37.381Z,1200
2017-09-17T09:03:37.145Z,1380
2017-09-17T09:04:37.410Z,1250
2017-09-17T09:05:37.453Z,555
2017-09-17T09:06:37.355Z,755
2017-09-17T09:07:37.674Z,1050
2017-09-17T09:08:37.292Z,675
2017-09-17T09:09:37.682Z,1305
2017-09-17T09:10:36.993Z,1590
2017-09-17T09:11:37.304Z,1625
2017-09-17T09:12:36.969Z,1575
2017-09-17T09:13:37.683Z,1575
2017-09-17T09:14:37.297Z,1205
2017-09-17T09:15:37.309Z,625
2017-09-17T09:16:37.261Z,525
2017-09-17T09:17:37.584Z,680
2017-09-17T09:18:37.573Z,805
2017-09-17T09:19:37.567Z,445
2017-09-17T09:20:37.267Z,505
2017-09-17T09:21:37.248Z,1070
2017-09-17T09:22:37.012Z,700
2017-09-17T09:23:36.893Z,740
2017-09-17T09:24:37.520Z,610
2017-09-17T09:25:37.210Z,955
2017-09-17T09:26:37.202Z,1410
2017-09-17T09:27:37.212Z,1365
2017-09-17T09:28:37.487Z,1265
2017-09-17T09:29:36.844Z,1270
2017-09-17T09:30:37.490Z,1180
2017-09-17T09:31:37.174Z,1160
2017-09-17T09:32:37.132Z,830
2017-09-17T09:33:37.440Z,950
2017-09-17T09:34:37.101Z,1255
2017-09-17T09:35:37.489Z,1170
2017-09-17T09:36:37.135Z,1225
2017-09-17T09:37:37.132Z,1295
2017-09-17T09:38:37.173Z,1205
2017-09-17T09:39:37.100Z,1190
2017-09-17T09:40:37.503Z,1245
2017-09-17T09:41:37.158Z,1225
2017-09-17T09:42:37.463Z,1300
2017-09-17T09:43:37.384Z,1310
2017-09-17T09:44:37.070Z,1290
2017-09-17T09:45:36.481Z,1280
2017-09-17T09:46:37.360Z,1160
2017-09-17T09:47:37.035Z,1215
2017-09-17T09:48:37.034Z,1240
2017-09-17T09:49:36.724Z,1245
2017-09-17T09:50:37.080Z,1215
2017-09-17T09:51:37.351Z,1145
2017-09-17T09:52:37.027Z,1155
2017-09-17T09:53:37.327Z,1180
2017-09-17T09:54:36.686Z,1220
2017-09-17T09:55:37.011Z,1190
2017-09-17T09:56:37.352Z,1120
2017-09-17T09:57:36.693Z,1110
2017-09-17T09:58:37.001Z,1100
2017-09-17T09:59:37.302Z,900
2017-09-17T10:00:37.290Z,1045
2017-09-17T10:01:36.978Z,1095
2017-09-17T10:02:36.991Z,1170
2017-09-17T10:03:37.280Z,1205
2017-09-17T10:04:36.953Z,1115
2017-09-17T10:05:36.623Z,1100
2017-09-17T10:06:36.642Z,1040
2017-09-17T10:07:36.935Z,865
2017-09-17T10:08:36.614Z,1050
2017-09-17T10:09:36.953Z,1050
2017-09-17T10:10:36.893Z,1110
2017-09-17T10:11:36.633Z,1105
2017-09-17T10:12:37.211Z,1100
2017-09-17T10:13:37.183Z,1000
2017-09-17T10:14:36.553Z,970
2017-09-17T10:15:36.870Z,995
2017-09-17T10:16:36.842Z,1015
2017-09-17T10:17:37.315Z,915
2017-09-17T10:18:36.859Z,920
2017-09-17T10:19:36.910Z,995
2017-09-17T10:20:36.512Z,970
2017-09-17T10:21:37.149Z,925
2017-09-17T10:22:36.859Z,940
2017-09-17T10:23:37.173Z,895
2017-09-17T10:24:36.801Z,910
2017-09-17T10:25:37.098Z,470
2017-09-17T10:26:37.110Z,260
2017-09-17T10:27:36.151Z,590
2017-09-17T10:28:37.095Z,240
2017-09-17T10:29:37.111Z,395
2017-09-17T10:30:37.024Z,410
2017-09-17T10:31:37.021Z,260
2017-09-17T10:32:36.409Z,390
2017-09-17T10:33:37.050Z,390
2017-09-17T10:34:37.000Z,370
2017-09-17T10:35:36.391Z,365
2017-09-17T10:36:36.672Z,365
2017-09-17T10:37:36.666Z,360
2017-09-17T10:38:36.094Z,360
2017-09-17T10:39:36.635Z,375
2017-09-17T10:40:36.626Z,375
2017-09-17T10:41:36.633Z,370
2017-09-17T10:42:36.637Z,370
2017-09-17T10:43:36.899Z,370
2017-09-17T10:44:36.897Z,365
2017-09-17T10:45:35.964Z,360
2017-09-17T10:46:36.340Z,370
2017-09-17T10:47:36.882Z,375
2017-09-17T10:48:36.573Z,375
2017-09-17T10:49:36.323Z,380
2017-09-17T10:50:36.542Z,380
2017-09-17T10:51:36.516Z,370
2017-09-17T10:52:36.839Z,375
2017-09-17T10:53:36.503Z,370
2017-09-17T10:54:36.815Z,375
2017-09-17T10:55:36.163Z,375
2017-09-17T10:56:36.816Z,360
2017-09-17T10:57:36.140Z,355
2017-09-17T10:58:36.774Z,355
2017-09-17T10:59:36.144Z,350
2017-09-17T11:00:36.153Z,350
2017-09-17T11:01:36.423Z,350
2017-09-17T11:02:36.393Z,350
2017-09-17T11:03:36.423Z,345
2017-09-17T11:04:36.712Z,345
2017-09-17T11:05:36.726Z,345
2017-09-17T11:06:36.065Z,325
2017-09-17T11:07:36.052Z,305
2017-09-17T11:08:36.022Z,350
2017-09-17T11:09:36.026Z,335
2017-09-17T11:10:36.654Z,320
2017-09-17T11:11:36.303Z,345
2017-09-17T11:12:35.687Z,355
2017-09-17T11:13:36.297Z,350
2017-09-17T11:14:35.972Z,345
2017-09-17T11:15:35.973Z,335
2017-09-17T11:16:36.314Z,335
2017-09-17T11:17:36.266Z,330
2017-09-17T11:18:35.923Z,220
2017-09-17T11:19:36.237Z,250
2017-09-17T11:20:35.922Z,340
2017-09-17T11:21:36.513Z,350
2017-09-17T11:22:36.239Z,360
2017-09-17T11:23:36.253Z,370
2017-09-17T11:24:36.160Z,365
2017-09-17T11:25:36.159Z,350
2017-09-17T11:26:35.984Z,340
2017-09-17T11:27:36.186Z,335
2017-09-17T11:28:36.389Z,340
2017-09-17T11:29:36.439Z,345
2017-09-17T11:30:36.431Z,350
2017-09-17T11:31:36.113Z,350
2017-09-17T11:32:36.086Z,345
2017-09-17T11:33:36.105Z,345
2017-09-17T11:34:36.080Z,240
2017-09-17T11:35:36.404Z,295
2017-09-17T11:36:36.058Z,320
2017-09-17T11:37:36.069Z,340
2017-09-17T11:38:35.730Z,310
2017-09-17T11:39:36.325Z,210
2017-09-17T11:40:35.994Z,210
2017-09-17T11:41:36.283Z,230
2017-09-17T11:42:35.994Z,245
2017-09-17T11:43:36.291Z,315
2017-09-17T11:44:36.283Z,315
2017-09-17T11:45:35.958Z,230
2017-09-17T11:46:35.959Z,185
2017-09-17T11:47:35.931Z,190
2017-09-17T11:48:35.931Z,185
2017-09-17T11:49:36.238Z,175
2017-09-17T11:50:36.207Z,165
2017-09-17T11:51:36.182Z,160
2017-09-17T11:52:35.886Z,165
2017-09-17T11:53:36.183Z,175
2017-09-17T11:54:36.169Z,185
2017-09-17T11:55:36.191Z,190
2017-09-17T11:56:36.205Z,195
2017-09-17T11:57:35.844Z,205
2017-09-17T11:58:35.815Z,315
2017-09-17T11:59:36.122Z,325
2017-09-17T12:00:36.099Z,205
2017-09-17T12:01:36.101Z,200
2017-09-17T12:02:35.792Z,190
2017-09-17T12:03:35.759Z,210
2017-09-17T12:04:35.430Z,190
2017-09-17T12:05:35.902Z,185
2017-09-17T12:06:35.750Z,180
2017-09-17T12:07:36.042Z,180
2017-09-17T12:08:35.719Z,175
2017-09-17T12:09:36.014Z,170
2017-09-17T12:10:35.711Z,170
2017-09-17T12:11:35.649Z,205
2017-09-17T12:12:35.989Z,280
2017-09-17T12:13:36.109Z,245
2017-09-17T12:14:35.664Z,160
2017-09-17T12:15:35.650Z,150
2017-09-17T12:16:35.598Z,135
2017-09-17T12:17:35.639Z,130
2017-09-17T12:18:35.279Z,125
2017-09-17T12:19:35.991Z,120
2017-09-17T12:20:35.893Z,120
2017-09-17T12:21:35.561Z,115
2017-09-17T12:22:35.538Z,110
2017-09-17T12:23:35.943Z,105
2017-09-17T12:24:35.855Z,100
2017-09-17T12:25:35.554Z,100
2017-09-17T12:26:35.494Z,100
2017-09-17T12:27:35.893Z,95
2017-09-17T12:28:34.850Z,95
2017-09-17T12:29:35.873Z,95
2017-09-17T12:30:35.828Z,100
2017-09-17T12:31:35.426Z,110
2017-09-17T12:32:35.109Z,115
2017-09-17T12:33:35.400Z,115
2017-09-17T12:34:35.396Z,115
2017-09-17T12:35:35.687Z,110
2017-09-17T12:36:35.663Z,105
2017-09-17T12:37:35.669Z,105
2017-09-17T12:38:35.391Z,105
2017-09-17T12:39:35.327Z,105
2017-09-17T12:40:35.636Z,100
2017-09-17T12:41:35.301Z,100
2017-09-17T12:42:35.598Z,100
2017-09-17T12:43:35.609Z,105
2017-09-17T12:44:35.565Z,105
2017-09-17T12:45:35.569Z,100
2017-09-17T12:46:35.564Z,100
2017-09-17T12:47:35.262Z,95
2017-09-17T12:48:34.953Z,95
2017-09-17T12:49:35.522Z,95
2017-09-17T12:50:35.192Z,95
2017-09-17T12:51:34.941Z,100
2017-09-17T12:52:35.489Z,105
2017-09-17T12:53:35.459Z,105
2017-09-17T12:54:35.226Z,105
2017-09-17T12:55:35.463Z,110
2017-09-17T12:56:35.405Z,120
2017-09-17T12:57:35.430Z,115
2017-09-17T12:58:35.006Z,120
2017-09-17T12:59:35.404Z,120
2017-09-17T13:00:35.078Z,140
2017-09-17T13:01:35.080Z,140
2017-09-17T13:02:35.061Z,145
2017-09-17T13:03:35.311Z,155
2017-09-17T13:04:35.301Z,130
2017-09-17T13:05:35.331Z,155
2017-09-17T13:06:34.656Z,165
2017-09-17T13:07:34.970Z,175
2017-09-17T13:08:35.032Z,120
2017-09-17T13:09:35.240Z,140
2017-09-17T13:10:34.605Z,125
2017-09-17T13:11:35.336Z,140
2017-09-17T13:12:34.925Z,140
2017-09-17T13:13:34.999Z,130
2017-09-17T13:14:35.189Z,100
2017-09-17T13:15:34.880Z,105
2017-09-17T13:16:35.147Z,85
2017-09-17T13:17:34.543Z,80
2017-09-17T13:18:35.130Z,80
2017-09-17T13:19:35.109Z,75
2017-09-17T13:20:35.126Z,75
2017-09-17T13:21:34.771Z,75
2017-09-17T13:22:35.082Z,75
2017-09-17T13:23:35.079Z,70
2017-09-17T13:24:34.722Z,70
2017-09-17T13:25:35.049Z,70
2017-09-17T13:26:35.029Z,70
2017-09-17T13:27:34.702Z,70
2017-09-17T13:28:34.931Z,70
2017-09-17T13:29:34.669Z,70
2017-09-17T13:30:34.677Z,70
2017-09-17T13:31:34.669Z,75
2017-09-17T13:32:34.313Z,75
2017-09-17T13:33:35.029Z,75
2017-09-17T13:34:34.623Z,75
2017-09-17T13:35:34.999Z,75
2017-09-17T13:36:34.912Z,75
2017-09-17T13:37:34.929Z,75
2017-09-17T13:38:34.540Z,75
2017-09-17T13:39:34.502Z,75
2017-09-17T13:40:34.510Z,75
2017-09-17T13:41:34.849Z,75
2017-09-17T13:42:34.489Z,75
2017-09-17T13:43:33.862Z,75
2017-09-17T13:44:33.929Z,75
2017-09-17T13:45:34.802Z,75
2017-09-17T13:46:34.751Z,75
2017-09-17T13:47:34.422Z,70
2017-09-17T13:48:34.750Z,70
2017-09-17T13:49:34.362Z,70
2017-09-17T13:50:34.362Z,70
2017-09-17T13:51:34.686Z,65
2017-09-17T13:52:34.330Z,65
2017-09-17T13:53:34.299Z,65
2017-09-17T13:54:33.999Z,65
2017-09-17T13:55:34.660Z,65
2017-09-17T13:56:33.630Z,65
2017-09-17T13:57:34.645Z,65
2017-09-17T13:58:33.941Z,65
2017-09-17T13:59:34.220Z,65
2017-09-17T14:00:33.880Z,70
2017-09-17T14:01:34.190Z,70
2017-09-17T14:02:34.499Z,70
2017-09-17T14:03:34.170Z,70
2017-09-17T14:04:34.172Z,70
2017-09-17T14:05:34.429Z,70
2017-09-17T14:06:33.793Z,70
2017-09-17T14:07:33.767Z,75
2017-09-17T14:08:34.391Z,75
2017-09-17T14:09:34.089Z,75